createdAt,value
2018-05-17T00:04:14.110Z,97055.76
2018-05-17T00:09:08.173Z,97061.08
2018-05-17T00:14:01.472Z,97055.92
2018-05-17T00:18:54.768Z,97064.60
2018-05-17T00:23:48.831Z,97064.00
2018-05-17T00:28:42.148Z,97060.36
2018-05-17T00:33:36.220Z,97050.87
2018-05-17T00:38:29.511Z,97051.78
2018-05-17T00:43:23.575Z,97049.45
2018-05-17T00:48:17.806Z,97052.91
2018-05-17T00:53:29.449Z,97044.70
2018-05-17T00:58:23.494Z,97046.53
2018-05-17T01:03:16.807Z,97050.29
2018-05-17T01:08:10.871Z,97050.53
2018-05-17T01:13:04.943Z,97051.66
2018-05-17T01:17:58.234Z,97048.12
2018-05-17T01:22:51.594Z,97052.32
2018-05-17T01:27:44.829Z,97043.00
2018-05-17T01:32:38.129Z,97046.33
2018-05-17T01:37:49.057Z,97040.05
2018-05-17T01:42:43.135Z,97040.61
2018-05-17T01:47:36.450Z,97036.06
2018-05-17T01:52:30.508Z,97042.43
2018-05-17T01:57:23.808Z,97048.28
2018-05-17T02:02:17.117Z,97038.67
2018-05-17T02:07:10.402Z,97041.31
2018-05-17T02:12:03.701Z,97039.41
2018-05-17T02:16:56.983Z,97046.56
2018-05-17T02:21:50.280Z,97048.16
2018-05-17T02:26:44.348Z,97043.22
2018-05-17T02:31:37.636Z,97039.27
2018-05-17T02:36:30.947Z,97041.77
2018-05-17T02:41:24.999Z,97055.31
2018-05-17T02:46:18.307Z,97056.19
2018-05-17T02:51:12.371Z,97059.01
2018-05-17T02:56:05.679Z,97057.02
2018-05-17T03:00:59.736Z,97054.77
2018-05-17T03:05:53.053Z,97048.81
2018-05-17T03:10:47.113Z,97042.24
2018-05-17T03:15:40.436Z,97054.32
2018-05-17T03:20:34.578Z,97041.70
2018-05-17T03:25:27.779Z,97036.39
2018-05-17T03:30:21.831Z,97034.88
2018-05-17T03:35:15.117Z,97040.06
2018-05-17T03:40:08.429Z,97044.62
2018-05-17T03:45:01.719Z,97040.42
2018-05-17T03:49:56.695Z,97040.96
2018-05-17T03:54:50.732Z,97031.24
2018-05-17T03:59:44.804Z,97042.45
2018-05-17T04:04:55.663Z,97044.77
2018-05-17T04:09:48.943Z,97037.95
2018-05-17T04:14:42.264Z,97047.27
2018-05-17T04:24:29.609Z,97050.19
2018-05-17T04:34:26.090Z,97067.57
2018-05-17T04:39:19.370Z,97075.52
2018-05-17T04:44:12.687Z,97078.80
2018-05-17T04:49:06.030Z,97078.88
2018-05-17T04:53:59.339Z,97077.55
2018-05-17T04:58:53.397Z,97076.86
2018-05-17T05:03:46.696Z,97076.78
2018-05-17T05:08:39.991Z,97088.77
2018-05-17T05:13:34.050Z,97091.05
2018-05-17T05:18:27.358Z,97093.80
2018-05-17T05:23:21.425Z,97097.02
2018-05-17T05:28:14.728Z,97101.59
2018-05-17T05:33:08.048Z,97094.27
2018-05-17T05:38:01.368Z,97095.02
2018-05-17T05:42:54.685Z,97094.47
2018-05-17T05:47:48.767Z,97078.91
2018-05-17T05:52:42.844Z,97095.15
2018-05-17T05:57:36.146Z,97095.16
2018-05-17T06:02:29.518Z,97087.94
2018-05-17T06:07:22.755Z,97095.38
2018-05-17T06:12:17.562Z,97099.00
2018-05-17T06:17:10.948Z,97099.62
2018-05-17T06:22:04.258Z,97103.59
2018-05-17T06:26:58.322Z,97095.55
2018-05-17T06:31:51.632Z,97099.88
2018-05-17T06:36:44.938Z,97098.09
2018-05-17T06:41:38.238Z,97108.01
2018-05-17T06:46:31.544Z,97109.10
2018-05-17T06:51:25.600Z,97107.59
2018-05-17T06:56:18.898Z,97105.52
2018-05-17T07:01:12.286Z,97112.14
2018-05-17T07:10:50.624Z,97120.44
2018-05-17T07:15:43.940Z,97132.48
2018-05-17T07:20:37.238Z,97133.38
2018-05-17T07:25:30.545Z,97131.66
2018-05-17T07:30:23.838Z,97139.05
2018-05-17T07:35:17.180Z,97135.44
2018-05-17T07:40:10.470Z,97140.15
2018-05-17T07:45:03.744Z,97146.66
2018-05-17T07:49:57.037Z,97149.28
2018-05-17T07:54:50.364Z,97135.69
2018-05-17T07:59:44.464Z,97143.72
2018-05-17T08:04:37.850Z,97144.83
2018-05-17T08:09:31.223Z,97151.66
2018-05-17T08:14:24.472Z,97155.06
2018-05-17T08:19:18.568Z,97162.73
2018-05-17T08:24:12.619Z,97166.06
2018-05-17T08:29:05.918Z,97162.54
2018-05-17T08:33:59.241Z,97171.55
2018-05-17T08:38:52.533Z,97170.63
2018-05-17T08:43:45.829Z,97177.83
2018-05-17T08:48:39.108Z,97177.34
2018-05-17T08:53:32.405Z,97173.09
2018-05-17T08:58:25.698Z,97180.52
2018-05-17T09:03:19.048Z,97174.89
2018-05-17T09:08:12.349Z,97181.32
2018-05-17T09:13:06.429Z,97187.05
2018-05-17T09:17:59.845Z,97193.88
2018-05-17T09:22:54.917Z,97197.20
2018-05-17T09:27:48.214Z,97195.02
2018-05-17T09:32:41.520Z,97193.29
2018-05-17T09:37:34.823Z,97199.34
2018-05-17T09:42:28.123Z,97193.12
2018-05-17T09:47:22.175Z,97195.28
2018-05-17T09:52:15.462Z,97196.18
2018-05-17T09:57:08.767Z,97193.55
2018-05-17T10:02:02.046Z,97201.70
2018-05-17T10:06:55.337Z,97213.52
2018-05-17T10:11:48.650Z,97212.51
2018-05-17T10:16:41.943Z,97216.22
2018-05-17T10:21:35.232Z,97221.75
2018-05-17T10:26:28.520Z,97218.33
2018-05-17T10:31:21.821Z,97217.81
2018-05-17T10:36:17.883Z,97223.61
2018-05-17T10:41:11.942Z,97220.07
2018-05-17T10:46:05.370Z,97218.16
2018-05-17T10:50:58.684Z,97228.48
2018-05-17T10:55:51.978Z,97234.41
2018-05-17T11:00:45.316Z,97235.17
2018-05-17T11:05:38.605Z,97238.23
2018-05-17T11:10:31.905Z,97233.20
2018-05-17T11:15:25.187Z,97238.40
2018-05-17T11:20:18.515Z,97235.88
2018-05-17T11:25:11.850Z,97240.75
2018-05-17T11:30:05.159Z,97235.30
2018-05-17T11:34:59.210Z,97232.25
2018-05-17T11:39:52.492Z,97235.78
2018-05-17T11:44:45.807Z,97238.80
2018-05-17T11:49:39.830Z,97233.34
2018-05-17T11:54:33.124Z,97228.44
2018-05-17T11:59:26.451Z,97238.59
2018-05-17T12:04:20.506Z,97237.38
2018-05-17T12:09:13.811Z,97228.59
2018-05-17T12:14:07.951Z,97227.91
2018-05-17T12:19:01.264Z,97228.64
2018-05-17T12:23:54.559Z,97238.70
2018-05-17T12:28:47.858Z,97230.48
2018-05-17T12:33:41.163Z,97227.31
2018-05-17T12:38:34.459Z,97227.54
2018-05-17T12:43:27.746Z,97222.05
2018-05-17T12:48:21.060Z,97223.34
2018-05-17T12:53:15.110Z,97229.14
2018-05-17T12:58:08.400Z,97230.56
2018-05-17T13:03:01.701Z,97230.56
2018-05-17T13:07:55.763Z,97232.30
2018-05-17T13:12:49.059Z,97226.10
2018-05-17T13:17:50.949Z,97219.20
2018-05-17T13:22:44.284Z,97212.17
2018-05-17T13:27:37.931Z,97216.48
2018-05-17T13:32:31.283Z,97217.68
2018-05-17T13:37:25.420Z,97219.93
2018-05-17T13:42:18.649Z,97214.48
2018-05-17T13:47:12.726Z,97210.95
2018-05-17T13:52:06.114Z,97213.08
2018-05-17T13:57:00.183Z,97214.59
2018-05-17T14:01:53.499Z,97217.39
2018-05-17T14:06:46.918Z,97225.21
2018-05-17T14:11:40.242Z,97225.32
2018-05-17T14:16:33.543Z,97236.01
2018-05-17T14:21:27.620Z,97232.83
2018-05-17T14:26:20.960Z,97231.09
2018-05-17T14:31:14.267Z,97237.55
2018-05-17T14:36:07.649Z,97231.32
2018-05-17T14:41:00.951Z,97235.53
2018-05-17T14:45:54.365Z,97230.22
2018-05-17T14:50:47.655Z,97233.13
2018-05-17T14:55:41.583Z,97244.13
2018-05-17T15:00:35.646Z,97235.63
2018-05-17T15:05:29.734Z,97228.02
2018-05-17T15:10:23.028Z,97227.86
2018-05-17T15:15:16.328Z,97225.98
2018-05-17T15:20:10.397Z,97219.63
2018-05-17T15:25:03.738Z,97212.61
2018-05-17T15:29:57.163Z,97220.78
2018-05-17T15:34:50.492Z,97212.98
2018-05-17T15:39:43.803Z,97221.06
2018-05-17T15:44:37.103Z,97227.23
2018-05-17T15:49:30.405Z,97227.08
2018-05-17T15:54:23.725Z,97229.34
2018-05-17T15:59:17.024Z,97220.83
2018-05-17T16:04:10.324Z,97227.70
2018-05-17T16:09:05.157Z,97220.75
2018-05-17T16:13:58.471Z,97219.60
2018-05-17T16:18:52.707Z,97232.27
2018-05-17T16:23:46.833Z,97234.86
2018-05-17T16:28:40.986Z,97231.33
2018-05-17T16:33:34.297Z,97230.75
2018-05-17T16:38:27.625Z,97233.13
2018-05-17T16:43:20.939Z,97234.97
2018-05-17T16:48:15.026Z,97241.36
2018-05-17T16:53:08.319Z,97243.86
2018-05-17T16:58:02.422Z,97250.30
2018-05-17T17:02:55.710Z,97251.34
2018-05-17T17:07:49.020Z,97247.73
2018-05-17T17:12:42.349Z,97252.48
2018-05-17T17:17:35.663Z,97254.33
2018-05-17T17:22:29.010Z,97259.36
2018-05-17T17:27:22.343Z,97262.70
2018-05-17T17:32:15.733Z,97256.07
2018-05-17T17:37:14.099Z,97261.23
2018-05-17T17:47:30.671Z,97267.17
2018-05-17T17:52:23.983Z,97261.67
2018-05-17T18:02:41.641Z,97267.40
2018-05-17T18:07:34.973Z,97272.84
2018-05-17T18:12:28.269Z,97269.48
2018-05-17T18:17:21.579Z,97272.17
2018-05-17T18:22:15.013Z,97283.47
2018-05-17T18:27:08.450Z,97293.27
2018-05-17T18:32:02.548Z,97296.77
2018-05-17T18:36:56.671Z,97306.73
2018-05-17T18:41:49.975Z,97301.18
2018-05-17T18:46:43.312Z,97307.36
2018-05-17T18:51:36.652Z,97304.03
2018-05-17T18:56:29.988Z,97308.33
2018-05-17T19:01:23.300Z,97314.02
2018-05-17T19:06:16.986Z,97316.20
2018-05-17T19:11:11.092Z,97323.45
2018-05-17T19:16:04.424Z,97331.25
2018-05-17T19:20:57.753Z,97335.11
2018-05-17T19:25:51.057Z,97346.97
2018-05-17T19:30:44.376Z,97342.40
2018-05-17T19:35:37.692Z,97343.68
2018-05-17T19:40:31.784Z,97352.16
2018-05-17T19:45:25.135Z,97358.36
2018-05-17T19:50:18.476Z,97365.89
2018-05-17T19:55:11.792Z,97367.20
2018-05-17T20:00:05.159Z,97376.68
2018-05-17T20:04:58.480Z,97369.11
2018-05-17T20:09:52.551Z,97378.20
2018-05-17T20:14:50.420Z,97385.02
2018-05-17T20:19:55.358Z,97381.94
2018-05-17T20:24:48.675Z,97385.08
2018-05-17T20:29:41.985Z,97389.27
2018-05-17T20:34:35.296Z,97384.48
2018-05-17T20:39:28.629Z,97387.91
2018-05-17T20:44:21.940Z,97387.50
2018-05-17T20:49:15.217Z,97388.44
2018-05-17T20:54:09.262Z,97387.13
2018-05-17T20:59:03.389Z,97384.91
2018-05-17T21:03:56.756Z,97387.75
2018-05-17T21:08:50.067Z,97380.70
2018-05-17T21:13:43.382Z,97377.81
2018-05-17T21:18:36.704Z,97375.34
2018-05-17T21:23:30.019Z,97372.05
2018-05-17T21:28:23.345Z,97385.50
2018-05-17T21:33:17.420Z,97384.63
2018-05-17T21:38:11.487Z,97386.41
2018-05-17T21:43:04.799Z,97379.13
2018-05-17T21:47:58.109Z,97385.00
2018-05-17T21:52:51.400Z,97373.94
2018-05-17T21:57:44.726Z,97373.59
2018-05-17T22:02:38.812Z,97371.23
2018-05-17T22:07:32.118Z,97370.97
2018-05-17T22:12:25.428Z,97368.59
2018-05-17T22:17:21.733Z,97373.38
2018-05-17T22:22:15.803Z,97382.88
2018-05-17T22:27:09.088Z,97373.80
2018-05-17T22:32:03.159Z,97379.83
2018-05-17T22:36:56.465Z,97380.03
2018-05-17T22:41:49.769Z,97375.89
2018-05-17T22:46:43.055Z,97376.02
2018-05-17T22:51:36.347Z,97365.77
2018-05-17T22:56:47.251Z,97372.26
2018-05-17T23:01:40.555Z,97371.09
2018-05-17T23:06:33.856Z,97373.91
2018-05-17T23:11:27.155Z,97372.84
2018-05-17T23:16:20.456Z,97372.11
2018-05-17T23:21:13.749Z,97361.16
2018-05-17T23:26:07.782Z,97361.32
2018-05-17T23:31:01.091Z,97367.70
2018-05-17T23:35:54.382Z,97365.86
2018-05-17T23:46:16.705Z,97370.39
2018-05-17T23:51:10.788Z,97364.66
2018-05-17T23:56:04.312Z,97365.69
